| time (UTC) | temp F | wind direction | speed MPH | gust MPH | rain 1hr in | rain 24hr in | rain mn in | humidity % | barometer mb |
| 20260508161625 | 59 | 153 | 1.0 | 2.0 | 0.00 | 0.00 | 0.00 | 36 | 1008.4 |
| 20260508161123 | 58 | 196 | 6.0 | 9.0 | 0.00 | 0.00 | 0.00 | 36 | 1008.6 |
| 20260508160622 | 59 | 22 | 2.0 | 4.0 | 0.00 | 0.00 | 0.00 | 36 | 1008.8 |
| 20260508160119 | 58 | 134 | 0.0 | 2.0 | 0.00 | 0.00 | 0.00 | 36 | 1008.7 |
| 20260508155615 | 58 | 116 | 2.0 | 11.0 | 0.00 | 0.00 | 0.00 | 36 | 1008.8 |
| 20260508155112 | 57 | 103 | 1.0 | 4.0 | 0.00 | 0.00 | 0.00 | 36 | 1008.9 |
| 20260508154609 | 60 | 175 | 3.0 | 7.0 | 0.00 | 0.00 | 0.00 | 35 | 1008.9 |
| 20260508154106 | 60 | 218 | 4.0 | 14.0 | 0.00 | 0.00 | 0.00 | 34 | 1009.1 |
| 20260508153603 | 60 | 211 | 1.0 | 3.0 | 0.00 | 0.00 | 0.00 | 36 | 1009.1 |
| 20260508153059 | 58 | 237 | 2.0 | 9.0 | 0.00 | 0.00 | 0.00 | 37 | 1009.1 |
| 20260508152557 | 58 | 190 | 4.0 | 7.0 | 0.00 | 0.00 | 0.00 | 37 | 1009.0 |
| 20260508152051 | 58 | 181 | 0.0 | 2.0 | 0.00 | 0.00 | 0.00 | 38 | 1009.0 |
| 20260508151548 | 58 | 11 | 3.0 | 6.0 | 0.00 | 0.00 | 0.00 | 36 | 1009.1 |
| 20260508151046 | 57 | 76 | 0.0 | 2.0 | 0.00 | 0.00 | 0.00 | 38 | 1009.1 |
| 20260508150543 | 57 | 98 | 1.0 | 3.0 | 0.00 | 0.00 | 0.00 | 36 | 1009.2 |
| 20260508150038 | 56 | 358 | 2.0 | 3.0 | 0.00 | 0.00 | 0.00 | 37 | 1009.3 |
| 20260508145535 | 57 | 202 | 3.0 | 4.0 | 0.00 | 0.00 | 0.00 | 37 | 1009.3 |
| 20260508145031 | 56 | 106 | 0.0 | 3.0 | 0.00 | 0.00 | 0.00 | 38 | 1009.3 |
| 20260508144530 | 56 | 35 | 2.0 | 9.0 | 0.00 | 0.00 | 0.00 | 38 | 1009.4 |
| 20260508144027 | 56 | 76 | 1.0 | 2.0 | 0.00 | 0.00 | 0.00 | 38 | 1009.7 |
| 20260508143524 | 56 | 128 | 1.0 | 9.0 | 0.00 | 0.00 | 0.00 | 36 | 1009.5 |
| 20260508143020 | 57 | 179 | 2.0 | 2.0 | 0.00 | 0.00 | 0.00 | 36 | 1009.3 |
| 20260508142518 | 56 | 210 | 2.0 | 3.0 | 0.00 | 0.00 | 0.00 | 37 | 1009.3 |
| 20260508142014 | 55 | 161 | 2.0 | 3.0 | 0.00 | 0.00 | 0.00 | 38 | 1009.6 |
| 20260508141510 | 55 | 178 | 0.0 | 3.0 | 0.00 | 0.00 | 0.00 | 38 | 1009.7 |
| 20260508141008 | 55 | 73 | 1.0 | 3.0 | 0.00 | 0.00 | 0.00 | 38 | 1009.6 |
| 20260508140506 | 55 | 228 | 2.0 | 4.0 | 0.00 | 0.00 | 0.00 | 38 | 1009.8 |
| 20260508140001 | 55 | 134 | 1.0 | 6.0 | 0.00 | 0.00 | 0.00 | 37 | 1009.8 |
| 20260508135457 | 55 | 198 | 2.0 | 4.0 | 0.00 | 0.00 | 0.00 | 37 | 1009.7 |
| 20260508134954 | 54 | 168 | 2.0 | 7.0 | 0.00 | 0.00 | 0.00 | 38 | 1009.8 |
| 20260508134450 | 55 | 168 | 1.0 | 4.0 | 0.00 | 0.00 | 0.00 | 36 | 1009.8 |
| 20260508133947 | 55 | 77 | 2.0 | 3.0 | 0.00 | 0.00 | 0.00 | 38 | 1009.7 |
| 20260508133445 | 56 | 274 | 2.0 | 2.0 | 0.00 | 0.00 | 0.00 | 37 | 1009.7 |
| 20260508132941 | 56 | 204 | 2.0 | 6.0 | 0.00 | 0.00 | 0.00 | 38 | 1009.6 |
| 20260508132440 | 55 | 49 | 2.0 | 4.0 | 0.00 | 0.00 | 0.00 | 37 | 1009.5 |
| 20260508131936 | 54 | 56 | 3.0 | 6.0 | 0.00 | 0.00 | 0.00 | 38 | 1009.8 |
| 20260508131431 | 54 | 60 | 1.0 | 3.0 | 0.00 | 0.00 | 0.00 | 41 | 1009.9 |
| 20260508130928 | 54 | 38 | 3.0 | 7.0 | 0.00 | 0.00 | 0.00 | 39 | 1009.8 |
| 20260508130426 | 54 | 78 | 0.0 | 2.0 | 0.00 | 0.00 | 0.00 | 41 | 1009.8 |
| 20260508125921 | 54 | 97 | 1.0 | 4.0 | 0.00 | 0.00 | 0.00 | 40 | 1009.9 |
| 20260508125417 | 53 | 194 | 2.0 | 3.0 | 0.00 | 0.00 | 0.00 | 43 | 1009.8 |
| 20260508124915 | 53 | 104 | 2.0 | 6.0 | 0.00 | 0.00 | 0.00 | 41 | 1009.8 |
| 20260508124413 | 53 | 78 | 1.0 | 4.0 | 0.00 | 0.00 | 0.00 | 42 | 1009.8 |
| 20260508123911 | 52 | 205 | 1.0 | 2.0 | 0.00 | 0.00 | 0.00 | 46 | 1009.8 |
| 20260508123409 | 51 | 68 | 2.0 | 4.0 | 0.00 | 0.00 | 0.00 | 45 | 1010.0 |
| 20260508122905 | 52 | 33 | 2.0 | 2.0 | 0.00 | 0.00 | 0.00 | 46 | 1009.9 |
| 20260508122402 | 51 | 262 | 0.0 | 2.0 | 0.00 | 0.00 | 0.00 | 45 | 1010.0 |
| 20260508121859 | 51 | 18 | 1.0 | 3.0 | 0.00 | 0.00 | 0.00 | 46 | 1010.0 |
| 20260508121357 | 51 | 349 | 1.0 | 3.0 | 0.00 | 0.00 | 0.00 | 45 | 1009.8 |
| 20260508120855 | 50 | 213 | 1.0 | 2.0 | 0.00 | 0.00 | 0.00 | 51 | 1009.8 |
| 20260508120352 | 49 | 206 | 0.0 | 1.0 | 0.00 | 0.00 | 0.00 | 50 | 1009.8 |
| 20260508115849 | 49 | 90 | 0.0 | 1.0 | 0.00 | 0.00 | 0.00 | 51 | 1009.8 |
| 20260508115347 | 49 | 143 | 1.0 | 1.0 | 0.00 | 0.00 | 0.00 | 51 | 1010.0 |
| 20260508114843 | 48 | 150 | 1.0 | 2.0 | 0.00 | 0.00 | 0.00 | 51 | 1010.0 |
| 20260508114340 | 47 | 66 | 0.0 | 1.0 | 0.00 | 0.00 | 0.00 | 53 | 1010.0 |
| 20260508113837 | 46 | 136 | 0.0 | 1.0 | 0.00 | 0.00 | 0.00 | 58 | 1009.8 |
| 20260508113335 | 44 | 180 | 1.0 | 1.0 | 0.00 | 0.00 | 0.00 | 61 | 1009.7 |
| 20260508112831 | 44 | 83 | 0.0 | 0.0 | 0.00 | 0.00 | 0.00 | 65 | 1009.8 |
| 20260508112329 | 43 | 83 | 0.0 | 0.0 | 0.00 | 0.00 | 0.00 | 66 | 1009.9 |
| 20260508111825 | 42 | 83 | 0.0 | 0.0 | 0.00 | 0.00 | 0.00 | 66 | 1009.9 |
| 20260508111322 | 42 | 84 | 0.0 | 0.0 | 0.00 | 0.00 | 0.00 | 71 | 1009.9 |
| 20260508110820 | 41 | 79 | 0.0 | 0.0 | 0.00 | 0.00 | 0.00 | 74 | 1009.7 |
| 20260508110317 | 41 | 79 | 0.0 | 0.0 | 0.00 | 0.00 | 0.00 | 78 | 1009.8 |
| 20260508105817 | 40 | 79 | 0.0 | 0.0 | 0.00 | 0.00 | 0.00 | 81 | 1009.7 |
| 20260508105314 | 40 | 79 | 0.0 | 0.0 | 0.00 | 0.00 | 0.00 | 82 | 1009.7 |
| 20260508104811 | 40 | 79 | 0.0 | 0.0 | 0.00 | 0.00 | 0.00 | 83 | 1009.7 |
| 20260508104307 | 39 | 79 | 0.0 | 0.0 | 0.00 | 0.00 | 0.00 | 84 | 1009.7 |
| 20260508103805 | 39 | 79 | 0.0 | 0.0 | 0.00 | 0.00 | 0.00 | 85 | 1009.7 |
| 20260508103301 | 39 | 79 | 0.0 | 0.0 | 0.00 | 0.00 | 0.00 | 85 | 1009.6 |
| 20260508102759 | 38 | 68 | 0.0 | 0.0 | 0.00 | 0.00 | 0.00 | 86 | 1009.5 |
| 20260508102257 | 38 | 68 | 0.0 | 0.0 | 0.00 | 0.00 | 0.00 | 86 | 1009.4 |
| 20260508101754 | 38 | 68 | 0.0 | 0.0 | 0.00 | 0.00 | 0.00 | 86 | 1009.3 |
| 20260508101251 | 38 | 68 | 0.0 | 0.0 | 0.00 | 0.00 | 0.00 | 86 | 1009.3 |
| 20260508100749 | 38 | 68 | 0.0 | 0.0 | 0.00 | 0.00 | 0.00 | 86 | 1009.2 |
| 20260508100246 | 39 | 68 | 0.0 | 1.0 | 0.00 | 0.00 | 0.00 | 86 | 1009.1 |
| 20260508095742 | 39 | 69 | 0.0 | 0.0 | 0.00 | 0.00 | 0.00 | 86 | 1009.2 |
| 20260508095240 | 39 | 69 | 0.0 | 0.0 | 0.00 | 0.00 | 0.00 | 85 | 1009.1 |
| 20260508094737 | 39 | 70 | 0.0 | 0.0 | 0.00 | 0.00 | 0.00 | 85 | 1009.0 |
| 20260508094234 | 39 | 71 | 0.0 | 0.0 | 0.00 | 0.00 | 0.00 | 84 | 1009.2 |
| 20260508093731 | 39 | 71 | 0.0 | 0.0 | 0.00 | 0.00 | 0.00 | 84 | 1009.0 |
| 20260508093229 | 39 | 71 | 0.0 | 0.0 | 0.00 | 0.00 | 0.00 | 84 | 1008.8 |
| 20260508092725 | 39 | 71 | 0.0 | 0.0 | 0.00 | 0.00 | 0.00 | 84 | 1008.8 |
| 20260508092224 | 39 | 71 | 0.0 | 0.0 | 0.00 | 0.00 | 0.00 | 83 | 1008.7 |
| 20260508091721 | 39 | 71 | 0.0 | 0.0 | 0.00 | 0.00 | 0.00 | 82 | 1008.8 |
| 20260508091218 | 39 | 71 | 0.0 | 0.0 | 0.00 | 0.00 | 0.00 | 81 | 1008.8 |
| 20260508090716 | 39 | 70 | 0.0 | 0.0 | 0.00 | 0.00 | 0.00 | 80 | 1008.7 |
| 20260508090213 | 39 | 71 | 0.0 | 0.0 | 0.00 | 0.00 | 0.00 | 78 | 1008.7 |
| 20260508085709 | 39 | 71 | 0.0 | 0.0 | 0.00 | 0.00 | 0.00 | 77 | 1008.8 |
| 20260508085207 | 39 | 71 | 0.0 | 0.0 | 0.00 | 0.00 | 0.00 | 76 | 1008.7 |
| 20260508084702 | 39 | 71 | 0.0 | 0.0 | 0.00 | 0.00 | 0.00 | 76 | 1008.6 |
| 20260508084200 | 39 | 71 | 0.0 | 0.0 | 0.00 | 0.00 | 0.00 | 76 | 1008.8 |
| 20260508083657 | 40 | 70 | 0.0 | 0.0 | 0.00 | 0.00 | 0.00 | 75 | 1008.7 |
| 20260508083155 | 40 | 71 | 0.0 | 0.0 | 0.00 | 0.00 | 0.00 | 73 | 1008.5 |
| 20260508082649 | 40 | 71 | 0.0 | 0.0 | 0.00 | 0.00 | 0.00 | 69 | 1008.8 |
| 20260508082147 | 40 | 71 | 0.0 | 0.0 | 0.00 | 0.00 | 0.00 | 70 | 1008.6 |
| 20260508081645 | 40 | 71 | 0.0 | 0.0 | 0.00 | 0.00 | 0.00 | 69 | 1008.5 |
| 20260508081141 | 40 | 71 | 0.0 | 0.0 | 0.00 | 0.00 | 0.00 | 69 | 1008.4 |
| 20260508080638 | 40 | 67 | 0.0 | 0.0 | 0.00 | 0.00 | 0.00 | 73 | 1008.5 |
| 20260508080137 | 39 | 72 | 0.0 | 0.0 | 0.00 | 0.00 | 0.00 | 75 | 1008.4 |
| 20260508075633 | 39 | 71 | 0.0 | 0.0 | 0.00 | 0.00 | 0.00 | 77 | 1008.2 |
| 20260508075130 | 40 | 71 | 0.0 | 0.0 | 0.00 | 0.00 | 0.00 | 77 | 1007.9 |
| 20260508074627 | 40 | 72 | 0.0 | 0.0 | 0.00 | 0.00 | 0.00 | 77 | 1008.0 |
| 20260508074124 | 40 | 72 | 0.0 | 0.0 | 0.00 | 0.00 | 0.00 | 77 | 1008.0 |
| 20260508073621 | 40 | 75 | 0.0 | 0.0 | 0.00 | 0.00 | 0.00 | 77 | 1007.9 |
| 20260508073120 | 41 | 74 | 0.0 | 0.0 | 0.00 | 0.00 | 0.00 | 76 | 1007.6 |
| 20260508072614 | 41 | 75 | 0.0 | 0.0 | 0.00 | 0.00 | 0.00 | 73 | 1007.7 |
| 20260508072112 | 41 | 80 | 0.0 | 0.0 | 0.00 | 0.00 | 0.00 | 69 | 1007.7 |
| 20260508071610 | 41 | 93 | 0.0 | 0.0 | 0.00 | 0.00 | 0.00 | 71 | 1007.6 |
| 20260508071108 | 41 | 108 | 0.0 | 0.0 | 0.00 | 0.00 | 0.00 | 72 | 1007.5 |
| 20260508070605 | 41 | 76 | 0.0 | 0.0 | 0.00 | 0.00 | 0.00 | 73 | 1007.5 |
| 20260508065600 | 42 | 79 | 0.0 | 0.0 | 0.00 | 0.00 | 0.00 | 70 | 1007.6 |
| 20260508065058 | 43 | 79 | 0.0 | 0.0 | 0.00 | 0.00 | 0.00 | 67 | 1007.6 |
| 20260508064555 | 43 | 73 | 0.0 | 0.0 | 0.00 | 0.00 | 0.00 | 67 | 1007.6 |
| 20260508064053 | 44 | 88 | 0.0 | 1.0 | 0.00 | 0.00 | 0.00 | 58 | 1007.5 |
| 20260508063550 | 44 | 163 | 0.0 | 1.0 | 0.00 | 0.00 | 0.00 | 58 | 1007.6 |
| 20260508063048 | 44 | 148 | 0.0 | 0.0 | 0.00 | 0.00 | 0.00 | 58 | 1007.8 |
| 20260508062545 | 44 | 137 | 0.0 | 0.0 | 0.00 | 0.00 | 0.00 | 59 | 1007.5 |
| 20260508062042 | 44 | 116 | 0.0 | 0.0 | 0.00 | 0.00 | 0.00 | 58 | 1007.6 |
| 20260508061540 | 44 | 62 | 0.0 | 1.0 | 0.00 | 0.00 | 0.00 | 60 | 1007.7 |
| 20260508061036 | 43 | 68 | 0.0 | 0.0 | 0.00 | 0.00 | 0.00 | 63 | 1007.6 |
| 20260508060533 | 42 | 82 | 0.0 | 0.0 | 0.00 | 0.00 | 0.00 | 66 | 1007.8 |
| 20260508060031 | 43 | 65 | 0.0 | 0.0 | 0.00 | 0.00 | 0.00 | 72 | 1007.8 |
| 20260508055526 | 43 | 65 | 0.0 | 0.0 | 0.00 | 0.00 | 0.00 | 72 | 1007.7 |
| 20260508055023 | 43 | 73 | 0.0 | 1.0 | 0.00 | 0.00 | 0.00 | 71 | 1007.9 |
| 20260508054520 | 44 | 67 | 1.0 | 1.0 | 0.00 | 0.00 | 0.00 | 66 | 1008.0 |
| 20260508054017 | 45 | 65 | 0.0 | 1.0 | 0.00 | 0.00 | 0.00 | 60 | 1007.9 |
| 20260508053514 | 45 | 97 | 0.0 | 0.0 | 0.00 | 0.00 | 0.00 | 59 | 1008.1 |
| 20260508053013 | 45 | 134 | 0.0 | 0.0 | 0.00 | 0.00 | 0.00 | 57 | 1008.0 |
| 20260508052509 | 45 | 139 | 1.0 | 1.0 | 0.00 | 0.00 | 0.00 | 56 | 1007.9 |
| 20260508052006 | 45 | 84 | 0.0 | 0.0 | 0.00 | 0.00 | 0.00 | 59 | 1008.0 |
| 20260508051502 | 45 | 95 | 0.0 | 0.0 | 0.00 | 0.00 | 0.00 | 61 | 1008.1 |
| 20260508050957 | 45 | 84 | 0.0 | 0.0 | 0.00 | 0.00 | 0.00 | 59 | 1008.1 |
| 20260508050454 | 45 | 79 | 0.0 | 0.0 | 0.00 | 0.00 | 0.00 | 61 | 1008.3 |
| 20260508045950 | 45 | 78 | 0.0 | 0.0 | 0.00 | 0.00 | 0.00 | 62 | 1008.3 |
| 20260508045448 | 45 | 79 | 0.0 | 0.0 | 0.00 | 0.00 | 0.00 | 61 | 1008.3 |
| 20260508044945 | 45 | 79 | 0.0 | 0.0 | 0.00 | 0.00 | 0.00 | 61 | 1008.3 |
| 20260508044442 | 46 | 79 | 0.0 | 0.0 | 0.00 | 0.00 | 0.00 | 60 | 1008.2 |
| 20260508043937 | 46 | 79 | 0.0 | 0.0 | 0.00 | 0.00 | 0.00 | 59 | 1008.3 |
| 20260508043435 | 47 | 79 | 0.0 | 0.0 | 0.00 | 0.00 | 0.00 | 57 | 1008.6 |
| 20260508042931 | 47 | 79 | 0.0 | 0.0 | 0.00 | 0.00 | 0.00 | 57 | 1008.5 |
| 20260508042429 | 48 | 80 | 0.0 | 0.0 | 0.00 | 0.00 | 0.00 | 55 | 1008.4 |
| 20260508041926 | 48 | 106 | 0.0 | 0.0 | 0.00 | 0.00 | 0.00 | 53 | 1008.5 |
| 20260508041422 | 48 | 144 | 0.0 | 0.0 | 0.00 | 0.00 | 0.00 | 52 | 1008.4 |
| 20260508040919 | 48 | 105 | 0.0 | 0.0 | 0.00 | 0.00 | 0.00 | 53 | 1008.5 |
| 20260508040416 | 48 | 73 | 0.0 | 0.0 | 0.00 | 0.00 | 0.00 | 52 | 1008.4 |
| 20260508035914 | 49 | 73 | 0.0 | 0.0 | 0.00 | 0.01 | 0.01 | 51 | 1008.4 |
| 20260508035411 | 49 | 78 | 0.0 | 0.0 | 0.00 | 0.01 | 0.01 | 51 | 1008.5 |
| 20260508034908 | 49 | 121 | 0.0 | 1.0 | 0.00 | 0.01 | 0.01 | 50 | 1008.4 |
| 20260508034405 | 49 | 167 | 0.0 | 0.0 | 0.00 | 0.01 | 0.01 | 50 | 1008.4 |
| 20260508033901 | 49 | 262 | 0.0 | 0.0 | 0.00 | 0.01 | 0.01 | 50 | 1008.4 |
| 20260508033400 | 49 | 96 | 0.0 | 0.0 | 0.00 | 0.01 | 0.01 | 50 | 1008.3 |
| 20260508032857 | 50 | 131 | 0.0 | 0.0 | 0.00 | 0.01 | 0.01 | 49 | 1008.5 |
| 20260508032354 | 50 | 63 | 0.0 | 1.0 | 0.00 | 0.01 | 0.01 | 49 | 1008.4 |
| 20260508031851 | 50 | 131 | 0.0 | 0.0 | 0.00 | 0.01 | 0.01 | 49 | 1008.3 |
| 20260508031348 | 51 | 164 | 0.0 | 3.0 | 0.00 | 0.01 | 0.01 | 47 | 1008.2 |
| 20260508030844 | 51 | 140 | 0.0 | 1.0 | 0.00 | 0.01 | 0.01 | 47 | 1008.0 |
| 20260508030341 | 51 | 157 | 1.0 | 2.0 | 0.00 | 0.01 | 0.01 | 47 | 1008.1 |
| 20260508025838 | 51 | 144 | 1.0 | 1.0 | 0.00 | 0.01 | 0.01 | 47 | 1008.2 |
| 20260508025335 | 51 | 151 | 0.0 | 1.0 | 0.00 | 0.01 | 0.01 | 48 | 1008.1 |
| 20260508024832 | 51 | 156 | 0.0 | 1.0 | 0.00 | 0.01 | 0.01 | 47 | 1008.1 |
| 20260508024328 | 51 | 168 | 0.0 | 1.0 | 0.00 | 0.01 | 0.01 | 48 | 1008.3 |
| 20260508023825 | 51 | 158 | 0.0 | 1.0 | 0.00 | 0.01 | 0.01 | 47 | 1008.3 |
| 20260508023322 | 51 | 173 | 1.0 | 1.0 | 0.00 | 0.01 | 0.01 | 47 | 1008.0 |
| 20260508022819 | 51 | 151 | 0.0 | 1.0 | 0.00 | 0.01 | 0.01 | 46 | 1007.9 |
| 20260508022314 | 51 | 161 | 0.0 | 1.0 | 0.00 | 0.01 | 0.01 | 47 | 1008.1 |
| 20260508021812 | 51 | 157 | 0.0 | 1.0 | 0.00 | 0.01 | 0.01 | 46 | 1008.1 |
| 20260508021307 | 52 | 133 | 0.0 | 1.0 | 0.00 | 0.01 | 0.01 | 46 | 1008.1 |
| 20260508020804 | 52 | 163 | 2.0 | 2.0 | 0.00 | 0.01 | 0.01 | 46 | 1008.0 |
| 20260508020302 | 52 | 135 | 0.0 | 0.0 | 0.00 | 0.01 | 0.01 | 47 | 1007.9 |
| 20260508015758 | 52 | 176 | 1.0 | 2.0 | 0.00 | 0.01 | 0.01 | 47 | 1008.0 |
| 20260508015256 | 52 | 162 | 1.0 | 1.0 | 0.00 | 0.01 | 0.01 | 45 | 1008.2 |
| 20260508014752 | 52 | 150 | 0.0 | 1.0 | 0.00 | 0.01 | 0.01 | 46 | 1008.0 |
| 20260508014249 | 52 | 148 | 0.0 | 0.0 | 0.00 | 0.01 | 0.01 | 47 | 1007.8 |
| 20260508013745 | 52 | 146 | 0.0 | 1.0 | 0.00 | 0.01 | 0.01 | 45 | 1007.8 |
| 20260508013242 | 52 | 155 | 0.0 | 0.0 | 0.00 | 0.01 | 0.01 | 45 | 1007.7 |
| 20260508012739 | 52 | 154 | 0.0 | 1.0 | 0.00 | 0.01 | 0.01 | 44 | 1007.4 |
| 20260508012236 | 52 | 145 | 0.0 | 1.0 | 0.00 | 0.01 | 0.01 | 46 | 1007.4 |
| 20260508011734 | 52 | 140 | 0.0 | 0.0 | 0.00 | 0.01 | 0.01 | 46 | 1007.4 |
| 20260508011231 | 52 | 134 | 0.0 | 1.0 | 0.00 | 0.01 | 0.01 | 44 | 1007.3 |
| 20260508010728 | 52 | 135 | 0.0 | 0.0 | 0.00 | 0.01 | 0.01 | 45 | 1007.3 |
| 20260508010226 | 53 | 135 | 0.0 | 0.0 | 0.00 | 0.01 | 0.01 | 43 | 1007.4 |
| 20260508005723 | 53 | 135 | 0.0 | 0.0 | 0.00 | 0.01 | 0.01 | 43 | 1007.4 |
| 20260508005220 | 53 | 137 | 0.0 | 0.0 | 0.00 | 0.01 | 0.01 | 42 | 1007.1 |
| 20260508004715 | 53 | 100 | 0.0 | 0.0 | 0.00 | 0.01 | 0.01 | 42 | 1007.1 |
| 20260508004212 | 54 | 304 | 0.0 | 1.0 | 0.00 | 0.01 | 0.01 | 41 | 1006.9 |
| 20260508003708 | 54 | 113 | 0.0 | 0.0 | 0.00 | 0.01 | 0.01 | 40 | 1007.1 |
| 20260508003206 | 54 | 117 | 0.0 | 2.0 | 0.00 | 0.01 | 0.01 | 40 | 1006.6 |
| 20260508002702 | 55 | 60 | 0.0 | 0.0 | 0.00 | 0.01 | 0.01 | 40 | 1006.7 |
| 20260508002200 | 55 | 140 | 0.0 | 0.0 | 0.00 | 0.01 | 0.01 | 39 | 1006.7 |
| 20260508001655 | 55 | 76 | 0.0 | 0.0 | 0.00 | 0.01 | 0.01 | 39 | 1006.7 |
| 20260508001151 | 55 | 152 | 0.0 | 0.0 | 0.00 | 0.01 | 0.01 | 38 | 1006.6 |
| 20260508000647 | 55 | 130 | 0.0 | 1.0 | 0.00 | 0.01 | 0.01 | 38 | 1006.9 |
| 20260508000145 | 55 | 97 | 0.0 | 0.0 | 0.00 | 0.01 | 0.01 | 39 | 1006.7 |
| 20260507235641 | 56 | 79 | 0.0 | 0.0 | 0.00 | 0.01 | 0.01 | 38 | 1006.5 |
| 20260507235139 | 56 | 49 | 0.0 | 1.0 | 0.00 | 0.01 | 0.01 | 36 | 1006.5 |
| 20260507234636 | 56 | 161 | 0.0 | 1.0 | 0.00 | 0.01 | 0.01 | 37 | 1006.4 |
| 20260507234132 | 56 | 56 | 0.0 | 1.0 | 0.00 | 0.01 | 0.01 | 37 | 1006.3 |
| 20260507233629 | 57 | 339 | 1.0 | 2.0 | 0.00 | 0.01 | 0.01 | 37 | 1006.3 |
| 20260507233127 | 57 | 186 | 1.0 | 1.0 | 0.00 | 0.01 | 0.01 | 36 | 1006.3 |
| 20260507232625 | 57 | 136 | 0.0 | 1.0 | 0.00 | 0.01 | 0.01 | 35 | 1006.3 |
| 20260507232121 | 57 | 74 | 2.0 | 3.0 | 0.00 | 0.01 | 0.01 | 34 | 1006.3 |
| 20260507231617 | 58 | 147 | 0.0 | 4.0 | 0.00 | 0.01 | 0.01 | 34 | 1006.0 |
| 20260507231114 | 58 | 175 | 0.0 | 3.0 | 0.00 | 0.01 | 0.01 | 34 | 1006.0 |
| 20260507230611 | 58 | 59 | 0.0 | 2.0 | 0.00 | 0.01 | 0.01 | 35 | 1006.2 |
| 20260507230108 | 58 | 162 | 0.0 | 2.0 | 0.00 | 0.01 | 0.01 | 35 | 1006.2 |
| 20260507225602 | 58 | 309 | 1.0 | 3.0 | 0.00 | 0.01 | 0.01 | 33 | 1006.1 |
| 20260507225059 | 59 | 51 | 0.0 | 1.0 | 0.00 | 0.01 | 0.01 | 33 | 1006.0 |
| 20260507224555 | 59 | 163 | 1.0 | 2.0 | 0.00 | 0.01 | 0.01 | 33 | 1006.2 |
| 20260507224052 | 60 | 148 | 2.0 | 4.0 | 0.00 | 0.01 | 0.01 | 31 | 1005.9 |
| 20260507223548 | 60 | 177 | 2.0 | 4.0 | 0.00 | 0.01 | 0.01 | 32 | 1005.8 |
| 20260507223045 | 60 | 98 | 1.0 | 3.0 | 0.00 | 0.01 | 0.01 | 32 | 1005.6 |
| 20260507222542 | 60 | 126 | 0.0 | 1.0 | 0.00 | 0.01 | 0.01 | 31 | 1005.7 |
| 20260507222038 | 60 | 161 | 1.0 | 2.0 | 0.00 | 0.01 | 0.01 | 31 | 1005.7 |
| 20260507221535 | 60 | 319 | 0.0 | 2.0 | 0.00 | 0.01 | 0.01 | 32 | 1005.8 |
| 20260507221032 | 60 | 165 | 0.0 | 2.0 | 0.00 | 0.01 | 0.01 | 31 | 1005.7 |
| 20260507220529 | 61 | 142 | 1.0 | 4.0 | 0.00 | 0.01 | 0.01 | 30 | 1005.7 |
| 20260507220026 | 61 | 212 | 2.0 | 7.0 | 0.00 | 0.01 | 0.01 | 31 | 1005.6 |
| 20260507215522 | 61 | 218 | 2.0 | 9.0 | 0.00 | 0.01 | 0.01 | 30 | 1005.5 |
| 20260507215020 | 61 | 152 | 2.0 | 3.0 | 0.00 | 0.01 | 0.01 | 32 | 1005.5 |
| 20260507214517 | 61 | 41 | 0.0 | 7.0 | 0.00 | 0.01 | 0.01 | 31 | 1005.5 |
| 20260507214013 | 61 | 210 | 4.0 | 6.0 | 0.00 | 0.01 | 0.01 | 31 | 1005.4 |
| 20260507213510 | 62 | 87 | 2.0 | 3.0 | 0.00 | 0.01 | 0.01 | 31 | 1005.4 |
| 20260507213007 | 61 | 57 | 1.0 | 1.0 | 0.00 | 0.01 | 0.01 | 32 | 1005.4 |
| 20260507212502 | 62 | 148 | 1.0 | 7.0 | 0.00 | 0.01 | 0.01 | 31 | 1005.5 |
| 20260507211959 | 62 | 48 | 2.0 | 3.0 | 0.00 | 0.01 | 0.01 | 29 | 1005.3 |
| 20260507211456 | 63 | 105 | 2.0 | 3.0 | 0.00 | 0.01 | 0.01 | 31 | 1005.6 |
| 20260507210952 | 63 | 249 | 1.0 | 3.0 | 0.00 | 0.01 | 0.01 | 29 | 1005.4 |
| 20260507210449 | 62 | 121 | 1.0 | 2.0 | 0.00 | 0.01 | 0.01 | 30 | 1005.3 |
| 20260507205946 | 63 | 98 | 2.0 | 3.0 | 0.00 | 0.01 | 0.01 | 29 | 1005.4 |
| 20260507205443 | 63 | 168 | 2.0 | 3.0 | 0.00 | 0.01 | 0.01 | 29 | 1005.3 |
| 20260507204939 | 63 | 202 | 1.0 | 4.0 | 0.00 | 0.01 | 0.01 | 29 | 1005.3 |
| 20260507204436 | 63 | 243 | 1.0 | 7.0 | 0.00 | 0.01 | 0.01 | 30 | 1005.3 |
| 20260507203934 | 63 | 219 | 1.0 | 2.0 | 0.00 | 0.01 | 0.01 | 30 | 1005.4 |
| 20260507203431 | 63 | 74 | 2.0 | 3.0 | 0.00 | 0.01 | 0.01 | 28 | 1005.3 |
| 20260507202928 | 63 | 73 | 2.0 | 9.0 | 0.00 | 0.01 | 0.01 | 31 | 1005.4 |
| 20260507202424 | 63 | 164 | 2.0 | 7.0 | 0.00 | 0.01 | 0.01 | 30 | 1005.5 |
| 20260507201920 | 63 | 190 | 3.0 | 6.0 | 0.00 | 0.01 | 0.01 | 29 | 1005.2 |
| 20260507201415 | 62 | 144 | 4.0 | 6.0 | 0.00 | 0.01 | 0.01 | 32 | 1005.3 |
| 20260507200912 | 62 | 111 | 3.0 | 4.0 | 0.00 | 0.01 | 0.01 | 32 | 1005.2 |
| 20260507200408 | 63 | 228 | 0.0 | 6.0 | 0.00 | 0.01 | 0.01 | 30 | 1005.3 |
| 20260507195904 | 64 | 226 | 2.0 | 3.0 | 0.00 | 0.01 | 0.01 | 31 | 1005.3 |
| 20260507195402 | 64 | 141 | 3.0 | 8.0 | 0.00 | 0.01 | 0.01 | 31 | 1005.2 |
| 20260507194859 | 62 | 204 | 0.0 | 2.0 | 0.00 | 0.01 | 0.01 | 34 | 1005.3 |
| 20260507194355 | 64 | 42 | 2.0 | 3.0 | 0.00 | 0.01 | 0.01 | 31 | 1005.5 |
| 20260507193851 | 65 | 109 | 4.0 | 6.0 | 0.00 | 0.01 | 0.01 | 29 | 1005.4 |
| 20260507193349 | 64 | 181 | 2.0 | 3.0 | 0.00 | 0.01 | 0.01 | 32 | 1005.6 |
| 20260507192845 | 64 | 77 | 3.0 | 6.0 | 0.00 | 0.01 | 0.01 | 29 | 1005.7 |
| 20260507192341 | 64 | 185 | 3.0 | 8.0 | 0.00 | 0.01 | 0.01 | 30 | 1005.7 |
| 20260507191838 | 65 | 125 | 2.0 | 6.0 | 0.00 | 0.01 | 0.01 | 30 | 1005.9 |
| 20260507191334 | 64 | 11 | 1.0 | 3.0 | 0.00 | 0.01 | 0.01 | 32 | 1005.5 |
| 20260507190831 | 64 | 144 | 5.0 | 7.0 | 0.00 | 0.01 | 0.01 | 33 | 1005.7 |
| 20260507190329 | 65 | 160 | 3.0 | 6.0 | 0.00 | 0.01 | 0.01 | 31 | 1005.7 |
| 20260507185828 | 64 | 35 | 2.0 | 6.0 | 0.00 | 0.01 | 0.01 | 29 | 1005.7 |
| 20260507185325 | 63 | 171 | 3.0 | 6.0 | 0.00 | 0.01 | 0.01 | 31 | 1005.9 |
| 20260507184822 | 63 | 88 | 1.0 | 4.0 | 0.00 | 0.01 | 0.01 | 33 | 1005.8 |
| 20260507184320 | 64 | 16 | 2.0 | 4.0 | 0.00 | 0.01 | 0.01 | 28 | 1005.8 |
| 20260507183816 | 62 | 216 | 2.0 | 3.0 | 0.00 | 0.01 | 0.01 | 34 | 1006.1 |
| 20260507183313 | 62 | 125 | 3.0 | 6.0 | 0.00 | 0.01 | 0.01 | 31 | 1006.3 |
| 20260507182811 | 62 | 141 | 1.0 | 4.0 | 0.00 | 0.01 | 0.01 | 33 | 1006.3 |
| 20260507182307 | 62 | 88 | 2.0 | 8.0 | 0.00 | 0.01 | 0.01 | 32 | 1006.1 |
| 20260507181803 | 62 | 129 | 1.0 | 4.0 | 0.00 | 0.01 | 0.01 | 30 | 1006.3 |
| 20260507181259 | 62 | 309 | 0.0 | 3.0 | 0.00 | 0.01 | 0.01 | 33 | 1006.6 |
| 20260507180755 | 63 | 107 | 2.0 | 4.0 | 0.00 | 0.01 | 0.01 | 30 | 1006.5 |
| 20260507180253 | 62 | 29 | 4.0 | 7.0 | 0.00 | 0.01 | 0.01 | 31 | 1006.5 |
| 20260507175748 | 62 | 93 | 1.0 | 6.0 | 0.00 | 0.01 | 0.01 | 30 | 1006.4 |
| 20260507175245 | 62 | 338 | 2.0 | 4.0 | 0.00 | 0.01 | 0.01 | 30 | 1006.3 |
| 20260507174742 | 62 | 81 | 2.0 | 4.0 | 0.00 | 0.01 | 0.01 | 31 | 1006.3 |
| 20260507174240 | 62 | 64 | 1.0 | 7.0 | 0.00 | 0.01 | 0.01 | 30 | 1006.3 |
| 20260507173738 | 62 | 152 | 2.0 | 3.0 | 0.00 | 0.01 | 0.01 | 31 | 1006.1 |
| 20260507173234 | 61 | 68 | 3.0 | 8.0 | 0.00 | 0.01 | 0.01 | 30 | 1006.2 |
| 20260507172731 | 63 | 90 | 1.0 | 7.0 | 0.00 | 0.01 | 0.01 | 31 | 1006.3 |
| 20260507172228 | 63 | 203 | 2.0 | 3.0 | 0.00 | 0.01 | 0.01 | 34 | 1005.9 |
| 20260507171728 | 62 | 215 | 2.0 | 6.0 | 0.00 | 0.01 | 0.01 | 32 | 1006.2 |
| 20260507171226 | 63 | 226 | 4.0 | 8.0 | 0.00 | 0.01 | 0.01 | 30 | 1006.5 |
| 20260507170722 | 62 | 202 | 3.0 | 6.0 | 0.00 | 0.01 | 0.01 | 31 | 1006.2 |
| 20260507170219 | 63 | 133 | 2.0 | 4.0 | 0.00 | 0.01 | 0.01 | 32 | 1006.5 |
| 20260507165715 | 62 | 42 | 1.0 | 3.0 | 0.00 | 0.01 | 0.01 | 34 | 1006.3 |
| 20260507165211 | 62 | 131 | 4.0 | 8.0 | 0.00 | 0.01 | 0.01 | 34 | 1006.4 |
| 20260507164707 | 62 | 140 | 1.0 | 6.0 | 0.00 | 0.01 | 0.01 | 34 | 1006.4 |
| 20260507164205 | 62 | 70 | 0.0 | 3.0 | 0.00 | 0.01 | 0.01 | 33 | 1006.7 |
| 20260507163702 | 62 | 73 | 2.0 | 6.0 | 0.00 | 0.01 | 0.01 | 33 | 1007.1 |
| 20260507163200 | 62 | 160 | 5.0 | 8.0 | 0.00 | 0.01 | 0.01 | 33 | 1007.0 |
| 20260507162655 | 61 | 77 | 2.0 | 3.0 | 0.00 | 0.01 | 0.01 | 34 | 1007.0 |
| 20260507162151 | 61 | 185 | 3.0 | 6.0 | 0.00 | 0.01 | 0.01 | 35 | 1007.1 |